sensor_id;sensor_type;location;lat;lon;timestamp;P1;durP1;ratioP1;P2;durP2;ratioP2
21639;SDS011;10981;45.462;10.974;2022-09-09T00:00:13;8.80;;;5.00;;
21639;SDS011;10981;45.462;10.974;2022-09-09T00:02:45;7.82;;;4.10;;
21639;SDS011;10981;45.462;10.974;2022-09-09T00:08:18;7.60;;;4.55;;
21639;SDS011;10981;45.462;10.974;2022-09-09T00:10:52;6.37;;;3.27;;
21639;SDS011;10981;45.462;10.974;2022-09-09T00:13:31;9.93;;;3.97;;
21639;SDS011;10981;45.462;10.974;2022-09-09T00:16:17;6.00;;;3.55;;
21639;SDS011;10981;45.462;10.974;2022-09-09T00:19:01;3.85;;;2.80;;
21639;SDS011;10981;45.462;10.974;2022-09-09T00:21:57;11.27;;;2.92;;
21639;SDS011;10981;45.462;10.974;2022-09-09T00:24:53;6.15;;;2.90;;
21639;SDS011;10981;45.462;10.974;2022-09-09T00:30:14;4.65;;;2.70;;
21639;SDS011;10981;45.462;10.974;2022-09-09T00:32:50;7.38;;;4.45;;
21639;SDS011;10981;45.462;10.974;2022-09-09T00:35:32;8.80;;;3.67;;
21639;SDS011;10981;45.462;10.974;2022-09-09T00:38:11;13.40;;;3.95;;
21639;SDS011;10981;45.462;10.974;2022-09-09T00:40:52;11.07;;;3.92;;
21639;SDS011;10981;45.462;10.974;2022-09-09T00:43:37;9.93;;;3.80;;
21639;SDS011;10981;45.462;10.974;2022-09-09T00:57:35;9.65;;;4.22;;
21639;SDS011;10981;45.462;10.974;2022-09-09T01:03:00;9.55;;;3.60;;
21639;SDS011;10981;45.462;10.974;2022-09-09T01:05:38;11.18;;;3.53;;
21639;SDS011;10981;45.462;10.974;2022-09-09T01:08:19;9.20;;;3.90;;
21639;SDS011;10981;45.462;10.974;2022-09-09T01:10:55;12.25;;;3.88;;
21639;SDS011;10981;45.462;10.974;2022-09-09T01:16:03;9.80;;;3.63;;
21639;SDS011;10981;45.462;10.974;2022-09-09T01:18:39;10.93;;;3.95;;
21639;SDS011;10981;45.462;10.974;2022-09-09T01:27:05;11.35;;;4.63;;
21639;SDS011;10981;45.462;10.974;2022-09-09T01:29:34;6.00;;;3.15;;
21639;SDS011;10981;45.462;10.974;2022-09-09T01:37:52;5.55;;;3.80;;
21639;SDS011;10981;45.462;10.974;2022-09-09T01:40:21;4.95;;;3.55;;
21639;SDS011;10981;45.462;10.974;2022-09-09T01:42:49;8.23;;;3.60;;
21639;SDS011;10981;45.462;10.974;2022-09-09T01:45:19;8.35;;;4.10;;
21639;SDS011;10981;45.462;10.974;2022-09-09T01:47:52;5.63;;;3.72;;
21639;SDS011;10981;45.462;10.974;2022-09-09T01:50:52;8.23;;;4.03;;
21639;SDS011;10981;45.462;10.974;2022-09-09T01:53:22;6.72;;;3.95;;
21639;SDS011;10981;45.462;10.974;2022-09-09T01:56:02;4.95;;;3.92;;
21639;SDS011;10981;45.462;10.974;2022-09-09T02:05:13;8.52;;;3.75;;
21639;SDS011;10981;45.462;10.974;2022-09-09T02:07:48;7.93;;;4.07;;
21639;SDS011;10981;45.462;10.974;2022-09-09T02:11:11;5.38;;;3.72;;
21639;SDS011;10981;45.462;10.974;2022-09-09T02:13:36;10.15;;;4.18;;
21639;SDS011;10981;45.462;10.974;2022-09-09T02:16:11;6.45;;;3.75;;
21639;SDS011;10981;45.462;10.974;2022-09-09T02:21:21;8.60;;;3.90;;
21639;SDS011;10981;45.462;10.974;2022-09-09T02:23:51;7.15;;;4.13;;
21639;SDS011;10981;45.462;10.974;2022-09-09T02:26:23;5.63;;;4.03;;
21639;SDS011;10981;45.462;10.974;2022-09-09T02:28:59;12.38;;;4.72;;
21639;SDS011;10981;45.462;10.974;2022-09-09T02:31:31;7.85;;;4.25;;
21639;SDS011;10981;45.462;10.974;2022-09-09T02:34:06;8.43;;;5.03;;
21639;SDS011;10981;45.462;10.974;2022-09-09T02:36:39;6.63;;;4.32;;
21639;SDS011;10981;45.462;10.974;2022-09-09T02:39:10;8.18;;;5.15;;
21639;SDS011;10981;45.462;10.974;2022-09-09T02:41:40;9.35;;;4.75;;
21639;SDS011;10981;45.462;10.974;2022-09-09T02:44:11;6.85;;;4.18;;
21639;SDS011;10981;45.462;10.974;2022-09-09T02:52:01;10.87;;;4.40;;
21639;SDS011;10981;45.462;10.974;2022-09-09T02:54:39;6.20;;;4.47;;
21639;SDS011;10981;45.462;10.974;2022-09-09T02:57:16;6.25;;;3.88;;
21639;SDS011;10981;45.462;10.974;2022-09-09T02:59:47;11.77;;;5.20;;
21639;SDS011;10981;45.462;10.974;2022-09-09T03:02:17;6.25;;;3.90;;
21639;SDS011;10981;45.462;10.974;2022-09-09T03:04:50;9.15;;;4.68;;
21639;SDS011;10981;45.462;10.974;2022-09-09T03:07:19;7.28;;;4.10;;
21639;SDS011;10981;45.462;10.974;2022-09-09T03:09:50;9.85;;;5.10;;
21639;SDS011;10981;45.462;10.974;2022-09-09T03:12:24;7.15;;;4.47;;
21639;SDS011;10981;45.462;10.974;2022-09-09T03:14:52;11.13;;;4.60;;
21639;SDS011;10981;45.462;10.974;2022-09-09T03:17:20;6.80;;;4.50;;
21639;SDS011;10981;45.462;10.974;2022-09-09T03:19:53;8.25;;;4.90;;
21639;SDS011;10981;45.462;10.974;2022-09-09T03:22:23;8.93;;;4.97;;
21639;SDS011;10981;45.462;10.974;2022-09-09T03:24:53;10.10;;;4.47;;
21639;SDS011;10981;45.462;10.974;2022-09-09T03:27:22;9.05;;;4.70;;
21639;SDS011;10981;45.462;10.974;2022-09-09T03:29:51;9.45;;;6.32;;
21639;SDS011;10981;45.462;10.974;2022-09-09T03:32:23;9.05;;;4.43;;
21639;SDS011;10981;45.462;10.974;2022-09-09T03:34:54;7.43;;;5.00;;
21639;SDS011;10981;45.462;10.974;2022-09-09T03:37:23;7.78;;;4.75;;
21639;SDS011;10981;45.462;10.974;2022-09-09T03:39:52;8.90;;;4.82;;
21639;SDS011;10981;45.462;10.974;2022-09-09T03:42:23;5.55;;;4.15;;
21639;SDS011;10981;45.462;10.974;2022-09-09T03:44:54;7.05;;;4.28;;
21639;SDS011;10981;45.462;10.974;2022-09-09T03:47:25;10.23;;;5.05;;
21639;SDS011;10981;45.462;10.974;2022-09-09T03:49:59;7.82;;;4.45;;
21639;SDS011;10981;45.462;10.974;2022-09-09T03:52:28;7.53;;;5.13;;
21639;SDS011;10981;45.462;10.974;2022-09-09T03:54:57;8.45;;;5.25;;
21639;SDS011;10981;45.462;10.974;2022-09-09T03:57:26;9.52;;;5.25;;
21639;SDS011;10981;45.462;10.974;2022-09-09T03:59:54;10.75;;;4.93;;
21639;SDS011;10981;45.462;10.974;2022-09-09T04:02:22;7.35;;;5.50;;
21639;SDS011;10981;45.462;10.974;2022-09-09T04:04:51;9.70;;;5.50;;
21639;SDS011;10981;45.462;10.974;2022-09-09T04:07:19;9.50;;;5.20;;
21639;SDS011;10981;45.462;10.974;2022-09-09T04:09:48;14.05;;;5.57;;
21639;SDS011;10981;45.462;10.974;2022-09-09T04:12:16;12.80;;;5.85;;
21639;SDS011;10981;45.462;10.974;2022-09-09T04:14:45;12.73;;;5.40;;
21639;SDS011;10981;45.462;10.974;2022-09-09T04:17:13;7.78;;;5.43;;
21639;SDS011;10981;45.462;10.974;2022-09-09T04:19:41;8.85;;;5.88;;
21639;SDS011;10981;45.462;10.974;2022-09-09T04:22:10;10.25;;;5.57;;
21639;SDS011;10981;45.462;10.974;2022-09-09T04:24:38;9.48;;;5.72;;
21639;SDS011;10981;45.462;10.974;2022-09-09T04:27:07;10.45;;;5.97;;
21639;SDS011;10981;45.462;10.974;2022-09-09T04:29:36;10.05;;;6.30;;
21639;SDS011;10981;45.462;10.974;2022-09-09T04:32:05;8.35;;;5.50;;
21639;SDS011;10981;45.462;10.974;2022-09-09T04:34:33;11.40;;;6.25;;
21639;SDS011;10981;45.462;10.974;2022-09-09T04:37:01;10.73;;;5.38;;
21639;SDS011;10981;45.462;10.974;2022-09-09T04:39:30;9.82;;;5.32;;
21639;SDS011;10981;45.462;10.974;2022-09-09T04:41:59;8.63;;;5.65;;
21639;SDS011;10981;45.462;10.974;2022-09-09T04:44:29;8.48;;;5.00;;
21639;SDS011;10981;45.462;10.974;2022-09-09T04:46:58;7.82;;;5.28;;
21639;SDS011;10981;45.462;10.974;2022-09-09T04:49:27;9.63;;;5.45;;
21639;SDS011;10981;45.462;10.974;2022-09-09T04:51:55;12.02;;;5.95;;
21639;SDS011;10981;45.462;10.974;2022-09-09T04:54:23;7.57;;;5.70;;
21639;SDS011;10981;45.462;10.974;2022-09-09T04:56:52;10.88;;;6.70;;
21639;SDS011;10981;45.462;10.974;2022-09-09T04:59:21;16.45;;;5.72;;
21639;SDS011;10981;45.462;10.974;2022-09-09T05:01:53;10.97;;;5.97;;
21639;SDS011;10981;45.462;10.974;2022-09-09T05:04:24;12.32;;;5.75;;
21639;SDS011;10981;45.462;10.974;2022-09-09T05:06:52;7.53;;;5.45;;
21639;SDS011;10981;45.462;10.974;2022-09-09T05:09:20;8.90;;;4.97;;
21639;SDS011;10981;45.462;10.974;2022-09-09T05:11:49;9.82;;;5.15;;
21639;SDS011;10981;45.462;10.974;2022-09-09T05:14:26;6.93;;;4.63;;
21639;SDS011;10981;45.462;10.974;2022-09-09T05:16:54;9.50;;;4.90;;
21639;SDS011;10981;45.462;10.974;2022-09-09T05:19:23;8.80;;;5.38;;
21639;SDS011;10981;45.462;10.974;2022-09-09T05:21:53;14.13;;;5.53;;
21639;SDS011;10981;45.462;10.974;2022-09-09T05:24:27;7.55;;;5.38;;
21639;SDS011;10981;45.462;10.974;2022-09-09T05:26:57;10.68;;;5.40;;
21639;SDS011;10981;45.462;10.974;2022-09-09T05:29:28;7.82;;;5.63;;
21639;SDS011;10981;45.462;10.974;2022-09-09T05:31:57;14.05;;;6.05;;
21639;SDS011;10981;45.462;10.974;2022-09-09T05:34:28;17.73;;;6.65;;
21639;SDS011;10981;45.462;10.974;2022-09-09T05:36:56;9.77;;;4.85;;
21639;SDS011;10981;45.462;10.974;2022-09-09T05:39:25;9.88;;;6.38;;
21639;SDS011;10981;45.462;10.974;2022-09-09T05:41:53;11.65;;;5.55;;
21639;SDS011;10981;45.462;10.974;2022-09-09T05:44:22;9.35;;;5.47;;
21639;SDS011;10981;45.462;10.974;2022-09-09T05:46:54;9.00;;;5.40;;
21639;SDS011;10981;45.462;10.974;2022-09-09T05:49:23;10.20;;;5.72;;
21639;SDS011;10981;45.462;10.974;2022-09-09T05:51:51;15.88;;;6.35;;
21639;SDS011;10981;45.462;10.974;2022-09-09T05:54:20;8.75;;;5.47;;
21639;SDS011;10981;45.462;10.974;2022-09-09T05:56:51;23.25;;;6.57;;
21639;SDS011;10981;45.462;10.974;2022-09-09T05:59:20;18.17;;;6.32;;
21639;SDS011;10981;45.462;10.974;2022-09-09T06:01:53;12.55;;;5.35;;
21639;SDS011;10981;45.462;10.974;2022-09-09T06:04:26;14.80;;;5.68;;
21639;SDS011;10981;45.462;10.974;2022-09-09T06:06:55;10.23;;;5.22;;
21639;SDS011;10981;45.462;10.974;2022-09-09T06:09:23;9.52;;;5.28;;
21639;SDS011;10981;45.462;10.974;2022-09-09T06:11:51;15.80;;;6.82;;
21639;SDS011;10981;45.462;10.974;2022-09-09T06:14:21;21.95;;;6.43;;
21639;SDS011;10981;45.462;10.974;2022-09-09T06:16:51;16.70;;;6.20;;
21639;SDS011;10981;45.462;10.974;2022-09-09T06:19:26;11.88;;;5.38;;
21639;SDS011;10981;45.462;10.974;2022-09-09T06:21:56;10.55;;;4.85;;
21639;SDS011;10981;45.462;10.974;2022-09-09T06:24:30;9.63;;;6.00;;
21639;SDS011;10981;45.462;10.974;2022-09-09T06:27:01;11.85;;;5.00;;
21639;SDS011;10981;45.462;10.974;2022-09-09T06:29:33;10.80;;;5.60;;
21639;SDS011;10981;45.462;10.974;2022-09-09T06:32:02;10.35;;;5.45;;
21639;SDS011;10981;45.462;10.974;2022-09-09T06:34:31;7.28;;;4.88;;
21639;SDS011;10981;45.462;10.974;2022-09-09T06:37:02;6.63;;;4.63;;
21639;SDS011;10981;45.462;10.974;2022-09-09T06:39:37;15.73;;;5.43;;
21639;SDS011;10981;45.462;10.974;2022-09-09T06:42:05;6.38;;;4.25;;
21639;SDS011;10981;45.462;10.974;2022-09-09T06:44:54;8.02;;;4.30;;
21639;SDS011;10981;45.462;10.974;2022-09-09T06:47:42;7.20;;;3.65;;
21639;SDS011;10981;45.462;10.974;2022-09-09T06:50:11;8.80;;;4.20;;
21639;SDS011;10981;45.462;10.974;2022-09-09T06:52:39;11.18;;;4.43;;
21639;SDS011;10981;45.462;10.974;2022-09-09T06:55:09;10.88;;;4.10;;
21639;SDS011;10981;45.462;10.974;2022-09-09T06:57:37;13.05;;;3.95;;
21639;SDS011;10981;45.462;10.974;2022-09-09T07:00:12;8.77;;;4.45;;
21639;SDS011;10981;45.462;10.974;2022-09-09T07:02:41;7.97;;;4.72;;
21639;SDS011;10981;45.462;10.974;2022-09-09T07:05:11;13.52;;;5.43;;
21639;SDS011;10981;45.462;10.974;2022-09-09T07:07:43;9.70;;;4.95;;
21639;SDS011;10981;45.462;10.974;2022-09-09T07:10:17;12.35;;;4.70;;
21639;SDS011;10981;45.462;10.974;2022-09-09T07:12:49;8.63;;;4.55;;
21639;SDS011;10981;45.462;10.974;2022-09-09T07:15:22;10.73;;;4.15;;
21639;SDS011;10981;45.462;10.974;2022-09-09T07:17:50;11.43;;;3.88;;
21639;SDS011;10981;45.462;10.974;2022-09-09T07:20:20;9.95;;;3.53;;
21639;SDS011;10981;45.462;10.974;2022-09-09T07:22:49;7.88;;;3.30;;
21639;SDS011;10981;45.462;10.974;2022-09-09T07:25:17;9.68;;;2.70;;
21639;SDS011;10981;45.462;10.974;2022-09-09T07:27:46;6.68;;;2.80;;
21639;SDS011;10981;45.462;10.974;2022-09-09T07:30:14;4.57;;;2.65;;
21639;SDS011;10981;45.462;10.974;2022-09-09T07:32:52;7.75;;;2.63;;
21639;SDS011;10981;45.462;10.974;2022-09-09T07:35:20;8.48;;;3.13;;
21639;SDS011;10981;45.462;10.974;2022-09-09T07:37:48;5.13;;;2.70;;
21639;SDS011;10981;45.462;10.974;2022-09-09T07:40:19;7.70;;;2.55;;
21639;SDS011;10981;45.462;10.974;2022-09-09T07:42:49;4.60;;;3.20;;
21639;SDS011;10981;45.462;10.974;2022-09-09T07:45:17;4.55;;;2.35;;
21639;SDS011;10981;45.462;10.974;2022-09-09T07:47:45;7.45;;;2.40;;
21639;SDS011;10981;45.462;10.974;2022-09-09T07:50:16;6.78;;;2.90;;
21639;SDS011;10981;45.462;10.974;2022-09-09T07:52:44;8.18;;;2.38;;
21639;SDS011;10981;45.462;10.974;2022-09-09T07:55:13;9.40;;;2.80;;
21639;SDS011;10981;45.462;10.974;2022-09-09T07:57:42;8.15;;;3.22;;
21639;SDS011;10981;45.462;10.974;2022-09-09T08:00:11;4.15;;;2.90;;
21639;SDS011;10981;45.462;10.974;2022-09-09T08:02:45;4.65;;;2.67;;
21639;SDS011;10981;45.462;10.974;2022-09-09T08:05:14;5.88;;;2.60;;
21639;SDS011;10981;45.462;10.974;2022-09-09T08:07:44;7.13;;;2.80;;
21639;SDS011;10981;45.462;10.974;2022-09-09T08:10:12;7.30;;;2.80;;
21639;SDS011;10981;45.462;10.974;2022-09-09T08:12:44;9.80;;;3.28;;
21639;SDS011;10981;45.462;10.974;2022-09-09T08:15:32;6.57;;;2.90;;
21639;SDS011;10981;45.462;10.974;2022-09-09T08:18:03;6.05;;;2.83;;
21639;SDS011;10981;45.462;10.974;2022-09-09T08:20:31;8.65;;;2.65;;
21639;SDS011;10981;45.462;10.974;2022-09-09T08:22:59;9.75;;;2.88;;
21639;SDS011;10981;45.462;10.974;2022-09-09T08:25:29;7.85;;;2.95;;
21639;SDS011;10981;45.462;10.974;2022-09-09T08:27:57;9.15;;;3.22;;
21639;SDS011;10981;45.462;10.974;2022-09-09T08:30:26;3.78;;;2.50;;
21639;SDS011;10981;45.462;10.974;2022-09-09T08:32:54;6.78;;;2.78;;
21639;SDS011;10981;45.462;10.974;2022-09-09T08:35:22;8.10;;;3.53;;
21639;SDS011;10981;45.462;10.974;2022-09-09T08:37:53;9.15;;;3.55;;
21639;SDS011;10981;45.462;10.974;2022-09-09T08:40:22;9.60;;;2.80;;
21639;SDS011;10981;45.462;10.974;2022-09-09T08:42:57;9.23;;;2.67;;
21639;SDS011;10981;45.462;10.974;2022-09-09T08:48:48;7.70;;;2.65;;
21639;SDS011;10981;45.462;10.974;2022-09-09T08:51:19;5.55;;;2.38;;
21639;SDS011;10981;45.462;10.974;2022-09-09T08:53:49;6.18;;;2.47;;
21639;SDS011;10981;45.462;10.974;2022-09-09T08:56:26;8.00;;;2.78;;
21639;SDS011;10981;45.462;10.974;2022-09-09T08:58:59;8.15;;;3.08;;
21639;SDS011;10981;45.462;10.974;2022-09-09T09:01:43;13.30;;;3.15;;
21639;SDS011;10981;45.462;10.974;2022-09-09T09:13:12;6.30;;;2.50;;
21639;SDS011;10981;45.462;10.974;2022-09-09T09:15:44;4.95;;;2.60;;
21639;SDS011;10981;45.462;10.974;2022-09-09T09:18:20;10.13;;;3.05;;
21639;SDS011;10981;45.462;10.974;2022-09-09T09:21:02;7.97;;;2.70;;
21639;SDS011;10981;45.462;10.974;2022-09-09T09:23:35;5.32;;;2.70;;
21639;SDS011;10981;45.462;10.974;2022-09-09T09:26:15;6.32;;;2.80;;
21639;SDS011;10981;45.462;10.974;2022-09-09T09:28:45;7.47;;;2.88;;
21639;SDS011;10981;45.462;10.974;2022-09-09T09:31:16;8.43;;;3.00;;
21639;SDS011;10981;45.462;10.974;2022-09-09T09:36:20;8.15;;;2.78;;
21639;SDS011;10981;45.462;10.974;2022-09-09T09:41:43;4.22;;;2.60;;
21639;SDS011;10981;45.462;10.974;2022-09-09T09:44:24;9.73;;;2.85;;
21639;SDS011;10981;45.462;10.974;2022-09-09T09:47:20;9.57;;;3.50;;
21639;SDS011;10981;45.462;10.974;2022-09-09T09:50:19;8.20;;;2.67;;
21639;SDS011;10981;45.462;10.974;2022-09-09T09:52:58;8.50;;;3.30;;
21639;SDS011;10981;45.462;10.974;2022-09-09T09:55:44;6.80;;;3.03;;
21639;SDS011;10981;45.462;10.974;2022-09-09T09:58:21;9.10;;;3.90;;
21639;SDS011;10981;45.462;10.974;2022-09-09T10:00:52;9.60;;;2.00;;
21639;SDS011;10981;45.462;10.974;2022-09-09T10:05:56;4.80;;;2.17;;
21639;SDS011;10981;45.462;10.974;2022-09-09T10:08:25;6.85;;;2.28;;
21639;SDS011;10981;45.462;10.974;2022-09-09T10:24:09;8.48;;;3.08;;
21639;SDS011;10981;45.462;10.974;2022-09-09T10:29:22;5.05;;;2.00;;
21639;SDS011;10981;45.462;10.974;2022-09-09T10:32:31;7.82;;;2.60;;
21639;SDS011;10981;45.462;10.974;2022-09-09T10:35:29;6.72;;;1.90;;
21639;SDS011;10981;45.462;10.974;2022-09-09T10:38:13;6.18;;;2.28;;
21639;SDS011;10981;45.462;10.974;2022-09-09T10:56:58;4.43;;;2.00;;
21639;SDS011;10981;45.462;10.974;2022-09-09T10:59:52;7.23;;;2.50;;
21639;SDS011;10981;45.462;10.974;2022-09-09T11:02:27;4.90;;;2.30;;
21639;SDS011;10981;45.462;10.974;2022-09-09T11:04:58;5.85;;;2.90;;
21639;SDS011;10981;45.462;10.974;2022-09-09T11:08:35;7.15;;;3.00;;
21639;SDS011;10981;45.462;10.974;2022-09-09T11:10:38;5.60;;;2.20;;
21639;SDS011;10981;45.462;10.974;2022-09-09T11:13:17;5.43;;;2.20;;
21639;SDS011;10981;45.462;10.974;2022-09-09T11:18:37;2.08;;;1.65;;
21639;SDS011;10981;45.462;10.974;2022-09-09T11:21:15;5.00;;;2.30;;
21639;SDS011;10981;45.462;10.974;2022-09-09T11:23:59;3.10;;;1.73;;
21639;SDS011;10981;45.462;10.974;2022-09-09T11:26:51;6.28;;;2.08;;
21639;SDS011;10981;45.462;10.974;2022-09-09T11:35:02;2.70;;;1.70;;
21639;SDS011;10981;45.462;10.974;2022-09-09T11:40:26;4.35;;;1.85;;
21639;SDS011;10981;45.462;10.974;2022-09-09T11:43:11;3.75;;;1.83;;
21639;SDS011;10981;45.462;10.974;2022-09-09T11:45:51;3.25;;;1.60;;
21639;SDS011;10981;45.462;10.974;2022-09-09T11:51:13;1.75;;;1.30;;
21639;SDS011;10981;45.462;10.974;2022-09-09T11:59:04;2.53;;;2.03;;
21639;SDS011;10981;45.462;10.974;2022-09-09T12:01:48;4.20;;;1.55;;
21639;SDS011;10981;45.462;10.974;2022-09-09T12:06:53;4.03;;;1.60;;
21639;SDS011;10981;45.462;10.974;2022-09-09T12:09:36;1.83;;;1.25;;
21639;SDS011;10981;45.462;10.974;2022-09-09T12:30:57;1.80;;;1.25;;
21639;SDS011;10981;45.462;10.974;2022-09-09T12:33:38;2.20;;;1.08;;
21639;SDS011;10981;45.462;10.974;2022-09-09T12:36:14;2.97;;;1.02;;
21639;SDS011;10981;45.462;10.974;2022-09-09T12:38:50;1.35;;;1.20;;
21639;SDS011;10981;45.462;10.974;2022-09-09T12:41:22;2.78;;;1.27;;
21639;SDS011;10981;45.462;10.974;2022-09-09T12:44:02;3.28;;;1.10;;
21639;SDS011;10981;45.462;10.974;2022-09-09T12:46:36;2.33;;;1.10;;
21639;SDS011;10981;45.462;10.974;2022-09-09T12:52:07;2.55;;;1.17;;
21639;SDS011;10981;45.462;10.974;2022-09-09T12:54:44;2.90;;;1.35;;
21639;SDS011;10981;45.462;10.974;2022-09-09T12:57:19;3.00;;;1.40;;
21639;SDS011;10981;45.462;10.974;2022-09-09T12:59:51;2.75;;;1.27;;
21639;SDS011;10981;45.462;10.974;2022-09-09T13:02:33;3.10;;;1.25;;
21639;SDS011;10981;45.462;10.974;2022-09-09T13:05:21;3.40;;;1.40;;
21639;SDS011;10981;45.462;10.974;2022-09-09T13:07:51;7.82;;;1.50;;
21639;SDS011;10981;45.462;10.974;2022-09-09T13:10:29;1.73;;;1.00;;
21639;SDS011;10981;45.462;10.974;2022-09-09T13:13:23;3.00;;;1.38;;
21639;SDS011;10981;45.462;10.974;2022-09-09T13:15:54;3.60;;;1.10;;
21639;SDS011;10981;45.462;10.974;2022-09-09T13:18:29;4.47;;;1.38;;
21639;SDS011;10981;45.462;10.974;2022-09-09T13:21:02;4.13;;;1.10;;
21639;SDS011;10981;45.462;10.974;2022-09-09T13:23:32;1.55;;;1.15;;
21639;SDS011;10981;45.462;10.974;2022-09-09T13:26:19;1.52;;;0.90;;
21639;SDS011;10981;45.462;10.974;2022-09-09T13:28:54;1.48;;;1.02;;
21639;SDS011;10981;45.462;10.974;2022-09-09T13:31:36;2.45;;;1.30;;
21639;SDS011;10981;45.462;10.974;2022-09-09T13:34:14;4.75;;;1.60;;
21639;SDS011;10981;45.462;10.974;2022-09-09T13:37:01;4.07;;;1.23;;
21639;SDS011;10981;45.462;10.974;2022-09-09T13:39:36;2.00;;;1.60;;
21639;SDS011;10981;45.462;10.974;2022-09-09T13:42:05;2.17;;;1.40;;
21639;SDS011;10981;45.462;10.974;2022-09-09T13:44:49;4.50;;;1.40;;
21639;SDS011;10981;45.462;10.974;2022-09-09T13:47:18;1.60;;;1.48;;
21639;SDS011;10981;45.462;10.974;2022-09-09T13:50:09;3.00;;;1.15;;
21639;SDS011;10981;45.462;10.974;2022-09-09T13:52:54;7.35;;;1.83;;
21639;SDS011;10981;45.462;10.974;2022-09-09T13:55:26;1.75;;;1.52;;
21639;SDS011;10981;45.462;10.974;2022-09-09T13:57:59;2.15;;;1.80;;
21639;SDS011;10981;45.462;10.974;2022-09-09T14:00:30;4.00;;;1.98;;
21639;SDS011;10981;45.462;10.974;2022-09-09T14:03:00;8.50;;;1.88;;
21639;SDS011;10981;45.462;10.974;2022-09-09T14:05:30;2.75;;;1.60;;
21639;SDS011;10981;45.462;10.974;2022-09-09T14:08:00;3.08;;;1.80;;
21639;SDS011;10981;45.462;10.974;2022-09-09T14:10:31;3.78;;;1.80;;
21639;SDS011;10981;45.462;10.974;2022-09-09T14:13:03;4.90;;;1.88;;
21639;SDS011;10981;45.462;10.974;2022-09-09T14:15:31;4.32;;;1.83;;
21639;SDS011;10981;45.462;10.974;2022-09-09T14:17:59;3.67;;;1.92;;
21639;SDS011;10981;45.462;10.974;2022-09-09T14:20:27;2.08;;;1.67;;
21639;SDS011;10981;45.462;10.974;2022-09-09T14:22:55;4.03;;;2.13;;
21639;SDS011;10981;45.462;10.974;2022-09-09T14:25:29;3.55;;;1.88;;
21639;SDS011;10981;45.462;10.974;2022-09-09T14:27:58;4.63;;;1.83;;
21639;SDS011;10981;45.462;10.974;2022-09-09T14:30:26;3.97;;;2.30;;
21639;SDS011;10981;45.462;10.974;2022-09-09T14:32:54;5.00;;;1.92;;
21639;SDS011;10981;45.462;10.974;2022-09-09T14:35:22;4.72;;;2.25;;
21639;SDS011;10981;45.462;10.974;2022-09-09T14:37:51;5.63;;;1.98;;
21639;SDS011;10981;45.462;10.974;2022-09-09T14:40:19;4.50;;;1.80;;
21639;SDS011;10981;45.462;10.974;2022-09-09T14:42:48;4.78;;;1.83;;
21639;SDS011;10981;45.462;10.974;2022-09-09T14:45:16;4.93;;;1.75;;
21639;SDS011;10981;45.462;10.974;2022-09-09T14:47:44;3.63;;;1.63;;
21639;SDS011;10981;45.462;10.974;2022-09-09T14:50:12;4.25;;;1.80;;
21639;SDS011;10981;45.462;10.974;2022-09-09T14:52:41;6.10;;;1.83;;
21639;SDS011;10981;45.462;10.974;2022-09-09T14:55:09;6.28;;;2.20;;
21639;SDS011;10981;45.462;10.974;2022-09-09T14:57:38;3.67;;;2.08;;
21639;SDS011;10981;45.462;10.974;2022-09-09T15:00:07;4.78;;;1.67;;
21639;SDS011;10981;45.462;10.974;2022-09-09T15:02:41;3.92;;;1.90;;
21639;SDS011;10981;45.462;10.974;2022-09-09T15:05:09;6.55;;;2.00;;
21639;SDS011;10981;45.462;10.974;2022-09-09T15:07:37;3.33;;;2.10;;
21639;SDS011;10981;45.462;10.974;2022-09-09T15:10:06;3.28;;;2.50;;
21639;SDS011;10981;45.462;10.974;2022-09-09T15:12:38;6.70;;;2.13;;
21639;SDS011;10981;45.462;10.974;2022-09-09T15:15:06;6.45;;;1.65;;
21639;SDS011;10981;45.462;10.974;2022-09-09T15:17:34;5.57;;;2.22;;
21639;SDS011;10981;45.462;10.974;2022-09-09T15:20:03;6.82;;;2.13;;
21639;SDS011;10981;45.462;10.974;2022-09-09T15:22:32;5.38;;;1.75;;
21639;SDS011;10981;45.462;10.974;2022-09-09T15:25:01;4.18;;;1.55;;
21639;SDS011;10981;45.462;10.974;2022-09-09T15:27:29;3.90;;;1.73;;
21639;SDS011;10981;45.462;10.974;2022-09-09T15:29:58;3.67;;;1.77;;
21639;SDS011;10981;45.462;10.974;2022-09-09T15:32:27;3.08;;;1.48;;
21639;SDS011;10981;45.462;10.974;2022-09-09T15:34:56;5.97;;;1.70;;
21639;SDS011;10981;45.462;10.974;2022-09-09T15:37:24;4.28;;;1.80;;
21639;SDS011;10981;45.462;10.974;2022-09-09T15:39:52;8.10;;;1.88;;
21639;SDS011;10981;45.462;10.974;2022-09-09T15:42:20;5.50;;;1.95;;
21639;SDS011;10981;45.462;10.974;2022-09-09T15:44:48;4.10;;;2.00;;
21639;SDS011;10981;45.462;10.974;2022-09-09T15:47:17;4.05;;;1.50;;
21639;SDS011;10981;45.462;10.974;2022-09-09T15:49:45;3.83;;;1.30;;
21639;SDS011;10981;45.462;10.974;2022-09-09T15:52:13;4.03;;;1.55;;
21639;SDS011;10981;45.462;10.974;2022-09-09T15:54:41;3.08;;;1.70;;
21639;SDS011;10981;45.462;10.974;2022-09-09T15:57:11;4.03;;;1.70;;
21639;SDS011;10981;45.462;10.974;2022-09-09T15:59:40;2.33;;;1.60;;
21639;SDS011;10981;45.462;10.974;2022-09-09T16:02:08;6.25;;;2.38;;
21639;SDS011;10981;45.462;10.974;2022-09-09T16:04:37;2.45;;;1.63;;
21639;SDS011;10981;45.462;10.974;2022-09-09T16:07:05;2.65;;;1.50;;
21639;SDS011;10981;45.462;10.974;2022-09-09T16:09:34;2.80;;;1.65;;
21639;SDS011;10981;45.462;10.974;2022-09-09T16:12:03;4.03;;;1.60;;
21639;SDS011;10981;45.462;10.974;2022-09-09T16:14:36;2.92;;;1.70;;
21639;SDS011;10981;45.462;10.974;2022-09-09T16:17:05;2.60;;;1.35;;
21639;SDS011;10981;45.462;10.974;2022-09-09T16:19:34;6.55;;;1.73;;
21639;SDS011;10981;45.462;10.974;2022-09-09T16:22:03;4.80;;;1.45;;
21639;SDS011;10981;45.462;10.974;2022-09-09T16:24:33;1.60;;;1.45;;
21639;SDS011;10981;45.462;10.974;2022-09-09T16:27:01;5.45;;;1.50;;
21639;SDS011;10981;45.462;10.974;2022-09-09T16:29:29;3.83;;;1.60;;
21639;SDS011;10981;45.462;10.974;2022-09-09T16:31:59;3.50;;;1.50;;
21639;SDS011;10981;45.462;10.974;2022-09-09T16:34:30;4.88;;;2.53;;
21639;SDS011;10981;45.462;10.974;2022-09-09T16:37:00;2.85;;;1.55;;
21639;SDS011;10981;45.462;10.974;2022-09-09T16:39:29;4.85;;;1.63;;
21639;SDS011;10981;45.462;10.974;2022-09-09T16:41:57;5.38;;;3.20;;
21639;SDS011;10981;45.462;10.974;2022-09-09T16:44:26;5.15;;;2.80;;
21639;SDS011;10981;45.462;10.974;2022-09-09T16:46:54;4.47;;;2.33;;
21639;SDS011;10981;45.462;10.974;2022-09-09T16:49:27;6.35;;;1.77;;
21639;SDS011;10981;45.462;10.974;2022-09-09T16:51:58;1.75;;;1.63;;
21639;SDS011;10981;45.462;10.974;2022-09-09T16:54:27;4.55;;;1.92;;
21639;SDS011;10981;45.462;10.974;2022-09-09T16:56:56;3.88;;;1.80;;
21639;SDS011;10981;45.462;10.974;2022-09-09T16:59:25;5.20;;;1.73;;
21639;SDS011;10981;45.462;10.974;2022-09-09T17:01:54;4.40;;;1.77;;
21639;SDS011;10981;45.462;10.974;2022-09-09T17:04:24;3.15;;;1.52;;
21639;SDS011;10981;45.462;10.974;2022-09-09T17:06:54;4.07;;;3.15;;
21639;SDS011;10981;45.462;10.974;2022-09-09T17:09:24;3.00;;;2.17;;
21639;SDS011;10981;45.462;10.974;2022-09-09T17:11:56;2.78;;;1.40;;
21639;SDS011;10981;45.462;10.974;2022-09-09T17:14:25;4.72;;;1.58;;
21639;SDS011;10981;45.462;10.974;2022-09-09T17:16:53;5.93;;;2.55;;
21639;SDS011;10981;45.462;10.974;2022-09-09T17:19:21;5.15;;;2.00;;
21639;SDS011;10981;45.462;10.974;2022-09-09T17:21:49;3.17;;;1.55;;
21639;SDS011;10981;45.462;10.974;2022-09-09T17:24:38;3.70;;;1.90;;
21639;SDS011;10981;45.462;10.974;2022-09-09T17:27:07;3.08;;;1.70;;
21639;SDS011;10981;45.462;10.974;2022-09-09T17:29:35;3.13;;;1.55;;